Airfield :
LOGIN :

Register | Disclaimer

   EN    FR    IT 

 










Legend :    VFR   Marginal VFR   IFR   Intensive IFR   Very Intensive IFR
Visi :
Ceiling :
>= 8 km
>= 3000ft
5 to 8 km
1000 to 3000 ft
1500m to 5 km
500 to 1000 ft
800 to 1500m
200 to 500 ft
< 800m
< 200 ft
Symbols :   Thunderstorms  Fog  Heavy snow  Heavy precipitations  Wind > 20 kt
SIGMETs :     Misc.  Thunderstorms  Icing  Turbulence  Mountain Waves  Volcanic Ashes







- Airport Elevation : 146 ft
- IATA code : RKE


EKRK - Roskilde Tune

CURRENT METAR :
  • 231450Z AUTO 09011KT 9999NDV SCT011/// BKN014/// OVC017/// 10/08 Q1017

EXPIRED METARs :
  • 231420Z AUTO 09013KT 9999NDV SCT012/// BKN016/// BKN045/// 10/08 Q1017
  • 231350Z AUTO 09014KT 9999NDV FEW011/// SCT026/// BKN043/// BKN050/// 10/09 Q1016
  • 231320Z AUTO 09012KT 9999NDV -SHRA FEW011/// SCT037/// BKN048/// 10/09 Q1016
  • 231250Z AUTO 08011KT 050V110 9999NDV FEW011/// SCT016/// BKN020/// BKN037/// 11/09 Q1015
  • 231220Z 08011KT 050V110 9999 SCT010 BKN035 11/09 Q1015

TAF TAF EKRK
Valid from the 23 at 15:00 until the 24 at 00:00 UTC


231405Z 2315/2324 09012KT 9999 FEW008 BKN030
TEMPO 2315/2324 BKN012
No reported NOTAMs for that airfield.



MET'MAP, your aeronautical weather chart ! - Copyright ORBIFLY December 2007 - Disclaimer

ORBIFLY MET'MAP TEAM :

Programming & Development : Alexandra Zaïnal
Concept & Development : Baudouin d'Aumeries
Co-Development & Prog : Marc-Olivier Méhu
Technical & hardware support : Manuel Goepfert

Contact : metmap@orbifly.com




SOURCES & CREDITS :

   NOAA